sensor_id;sensor_type;location;lat;lon;timestamp;P1;durP1;ratioP1;P2;durP2;ratioP2
38007;SDS011;75335;50.812;12.376;2024-01-15T00:00:49;33.75;;;17.27;;
38007;SDS011;75335;50.812;12.376;2024-01-15T00:03:17;33.10;;;15.88;;
38007;SDS011;75335;50.812;12.376;2024-01-15T00:05:45;34.63;;;14.73;;
38007;SDS011;75335;50.812;12.376;2024-01-15T00:08:13;30.35;;;15.32;;
38007;SDS011;75335;50.812;12.376;2024-01-15T00:10:41;36.05;;;16.27;;
38007;SDS011;75335;50.812;12.376;2024-01-15T00:13:10;27.63;;;13.65;;
38007;SDS011;75335;50.812;12.376;2024-01-15T00:15:38;35.97;;;16.27;;
38007;SDS011;75335;50.812;12.376;2024-01-15T00:18:06;31.30;;;15.15;;
38007;SDS011;75335;50.812;12.376;2024-01-15T00:20:34;28.88;;;14.60;;
38007;SDS011;75335;50.812;12.376;2024-01-15T00:23:02;29.98;;;15.05;;
38007;SDS011;75335;50.812;12.376;2024-01-15T00:25:30;35.45;;;16.10;;
38007;SDS011;75335;50.812;12.376;2024-01-15T00:27:58;33.45;;;15.35;;
38007;SDS011;75335;50.812;12.376;2024-01-15T00:30:27;32.05;;;16.02;;
38007;SDS011;75335;50.812;12.376;2024-01-15T00:32:55;30.13;;;14.70;;
38007;SDS011;75335;50.812;12.376;2024-01-15T00:35:23;30.77;;;14.93;;
38007;SDS011;75335;50.812;12.376;2024-01-15T00:37:51;31.92;;;14.77;;
38007;SDS011;75335;50.812;12.376;2024-01-15T00:40:19;38.05;;;15.57;;
38007;SDS011;75335;50.812;12.376;2024-01-15T00:42:47;33.42;;;17.40;;
38007;SDS011;75335;50.812;12.376;2024-01-15T00:45:15;33.65;;;15.52;;
38007;SDS011;75335;50.812;12.376;2024-01-15T00:47:46;32.40;;;15.88;;
38007;SDS011;75335;50.812;12.376;2024-01-15T00:50:14;38.20;;;15.77;;
38007;SDS011;75335;50.812;12.376;2024-01-15T00:52:42;35.13;;;14.13;;
38007;SDS011;75335;50.812;12.376;2024-01-15T00:55:10;30.73;;;15.75;;
38007;SDS011;75335;50.812;12.376;2024-01-15T00:57:38;33.05;;;17.73;;
38007;SDS011;75335;50.812;12.376;2024-01-15T01:00:06;33.60;;;15.40;;
38007;SDS011;75335;50.812;12.376;2024-01-15T01:02:36;30.55;;;15.18;;
38007;SDS011;75335;50.812;12.376;2024-01-15T01:05:06;35.67;;;15.73;;
38007;SDS011;75335;50.812;12.376;2024-01-15T01:07:35;31.20;;;16.10;;
38007;SDS011;75335;50.812;12.376;2024-01-15T01:10:02;29.70;;;14.38;;
38007;SDS011;75335;50.812;12.376;2024-01-15T01:12:32;29.25;;;15.35;;
38007;SDS011;75335;50.812;12.376;2024-01-15T01:15:00;35.88;;;14.90;;
38007;SDS011;75335;50.812;12.376;2024-01-15T01:17:28;34.72;;;14.57;;
38007;SDS011;75335;50.812;12.376;2024-01-15T01:19:56;30.65;;;15.60;;
38007;SDS011;75335;50.812;12.376;2024-01-15T01:22:26;28.35;;;15.10;;
38007;SDS011;75335;50.812;12.376;2024-01-15T01:24:54;35.40;;;18.77;;
38007;SDS011;75335;50.812;12.376;2024-01-15T01:27:22;35.58;;;18.83;;
38007;SDS011;75335;50.812;12.376;2024-01-15T01:29:50;35.22;;;16.77;;
38007;SDS011;75335;50.812;12.376;2024-01-15T01:32:18;36.15;;;17.40;;
38007;SDS011;75335;50.812;12.376;2024-01-15T01:34:46;27.45;;;13.48;;
38007;SDS011;75335;50.812;12.376;2024-01-15T01:37:14;37.10;;;16.95;;
38007;SDS011;75335;50.812;12.376;2024-01-15T01:39:43;40.20;;;17.10;;
38007;SDS011;75335;50.812;12.376;2024-01-15T01:42:12;34.95;;;18.05;;
38007;SDS011;75335;50.812;12.376;2024-01-15T01:44:41;41.25;;;19.63;;
38007;SDS011;75335;50.812;12.376;2024-01-15T01:47:09;41.30;;;18.25;;
38007;SDS011;75335;50.812;12.376;2024-01-15T01:49:37;40.17;;;19.20;;
38007;SDS011;75335;50.812;12.376;2024-01-15T01:52:05;44.08;;;19.65;;
38007;SDS011;75335;50.812;12.376;2024-01-15T01:54:34;33.92;;;18.33;;
38007;SDS011;75335;50.812;12.376;2024-01-15T01:57:06;41.88;;;19.20;;
38007;SDS011;75335;50.812;12.376;2024-01-15T01:59:35;41.22;;;20.02;;
38007;SDS011;75335;50.812;12.376;2024-01-15T02:02:04;36.72;;;18.92;;
38007;SDS011;75335;50.812;12.376;2024-01-15T02:04:33;38.42;;;19.40;;
38007;SDS011;75335;50.812;12.376;2024-01-15T02:07:02;41.40;;;20.55;;
38007;SDS011;75335;50.812;12.376;2024-01-15T02:09:30;40.33;;;19.42;;
38007;SDS011;75335;50.812;12.376;2024-01-15T02:11:58;38.80;;;19.08;;
38007;SDS011;75335;50.812;12.376;2024-01-15T02:14:28;42.58;;;21.95;;
38007;SDS011;75335;50.812;12.376;2024-01-15T02:16:56;39.00;;;19.15;;
38007;SDS011;75335;50.812;12.376;2024-01-15T02:19:24;36.67;;;18.92;;
38007;SDS011;75335;50.812;12.376;2024-01-15T02:21:52;43.58;;;20.52;;
38007;SDS011;75335;50.812;12.376;2024-01-15T02:24:22;38.83;;;18.40;;
38007;SDS011;75335;50.812;12.376;2024-01-15T02:26:49;40.47;;;19.83;;
38007;SDS011;75335;50.812;12.376;2024-01-15T02:29:17;42.13;;;19.42;;
38007;SDS011;75335;50.812;12.376;2024-01-15T02:31:45;42.78;;;20.35;;
38007;SDS011;75335;50.812;12.376;2024-01-15T02:34:13;38.00;;;19.88;;
38007;SDS011;75335;50.812;12.376;2024-01-15T02:36:41;39.25;;;20.13;;
38007;SDS011;75335;50.812;12.376;2024-01-15T02:39:09;40.53;;;18.50;;
38007;SDS011;75335;50.812;12.376;2024-01-15T02:41:39;36.30;;;17.23;;
38007;SDS011;75335;50.812;12.376;2024-01-15T02:44:07;38.00;;;19.45;;
38007;SDS011;75335;50.812;12.376;2024-01-15T02:46:35;40.47;;;18.15;;
38007;SDS011;75335;50.812;12.376;2024-01-15T02:49:03;43.33;;;19.63;;
38007;SDS011;75335;50.812;12.376;2024-01-15T02:51:31;41.20;;;16.90;;
38007;SDS011;75335;50.812;12.376;2024-01-15T02:53:59;39.83;;;18.70;;
38007;SDS011;75335;50.812;12.376;2024-01-15T02:56:27;45.97;;;21.35;;
38007;SDS011;75335;50.812;12.376;2024-01-15T02:58:56;53.90;;;24.52;;
38007;SDS011;75335;50.812;12.376;2024-01-15T03:01:23;43.55;;;21.58;;
38007;SDS011;75335;50.812;12.376;2024-01-15T03:03:51;47.55;;;21.58;;
38007;SDS011;75335;50.812;12.376;2024-01-15T03:06:26;39.30;;;19.40;;
38007;SDS011;75335;50.812;12.376;2024-01-15T03:08:54;45.80;;;19.73;;
38007;SDS011;75335;50.812;12.376;2024-01-15T03:11:22;33.92;;;17.15;;
38007;SDS011;75335;50.812;12.376;2024-01-15T03:13:49;37.35;;;17.35;;
38007;SDS011;75335;50.812;12.376;2024-01-15T03:16:19;38.17;;;18.08;;
38007;SDS011;75335;50.812;12.376;2024-01-15T03:18:48;36.83;;;16.65;;
38007;SDS011;75335;50.812;12.376;2024-01-15T03:21:16;39.30;;;17.45;;
38007;SDS011;75335;50.812;12.376;2024-01-15T03:23:44;35.33;;;16.80;;
38007;SDS011;75335;50.812;12.376;2024-01-15T03:26:12;35.85;;;17.98;;
38007;SDS011;75335;50.812;12.376;2024-01-15T03:28:39;41.97;;;19.20;;
38007;SDS011;75335;50.812;12.376;2024-01-15T03:31:07;39.03;;;18.67;;
38007;SDS011;75335;50.812;12.376;2024-01-15T03:33:38;38.60;;;18.27;;
38007;SDS011;75335;50.812;12.376;2024-01-15T03:36:07;39.40;;;17.90;;
38007;SDS011;75335;50.812;12.376;2024-01-15T03:38:38;40.08;;;18.27;;
38007;SDS011;75335;50.812;12.376;2024-01-15T03:41:07;35.88;;;18.50;;
38007;SDS011;75335;50.812;12.376;2024-01-15T03:43:35;36.38;;;17.65;;
38007;SDS011;75335;50.812;12.376;2024-01-15T03:46:03;42.20;;;19.40;;
38007;SDS011;75335;50.812;12.376;2024-01-15T03:48:32;34.10;;;18.45;;
38007;SDS011;75335;50.812;12.376;2024-01-15T03:51:01;40.33;;;18.52;;
38007;SDS011;75335;50.812;12.376;2024-01-15T03:53:29;41.80;;;18.83;;
38007;SDS011;75335;50.812;12.376;2024-01-15T03:55:57;39.92;;;18.30;;
38007;SDS011;75335;50.812;12.376;2024-01-15T03:58:37;42.83;;;18.15;;
38007;SDS011;75335;50.812;12.376;2024-01-15T04:01:07;33.33;;;18.13;;
38007;SDS011;75335;50.812;12.376;2024-01-15T04:03:36;40.22;;;17.92;;
38007;SDS011;75335;50.812;12.376;2024-01-15T04:06:06;40.47;;;17.88;;
38007;SDS011;75335;50.812;12.376;2024-01-15T04:08:33;40.35;;;18.30;;
38007;SDS011;75335;50.812;12.376;2024-01-15T04:11:02;40.80;;;16.65;;
38007;SDS011;75335;50.812;12.376;2024-01-15T04:13:34;37.58;;;18.15;;
38007;SDS011;75335;50.812;12.376;2024-01-15T04:16:03;41.20;;;18.65;;
38007;SDS011;75335;50.812;12.376;2024-01-15T04:18:31;40.50;;;17.73;;
38007;SDS011;75335;50.812;12.376;2024-01-15T04:20:59;34.78;;;15.88;;
38007;SDS011;75335;50.812;12.376;2024-01-15T04:23:28;45.03;;;17.90;;
38007;SDS011;75335;50.812;12.376;2024-01-15T04:25:59;38.55;;;17.83;;
38007;SDS011;75335;50.812;12.376;2024-01-15T04:28:26;39.07;;;18.13;;
38007;SDS011;75335;50.812;12.376;2024-01-15T04:30:54;41.47;;;19.08;;
38007;SDS011;75335;50.812;12.376;2024-01-15T04:33:22;34.75;;;14.85;;
38007;SDS011;75335;50.812;12.376;2024-01-15T04:35:50;35.42;;;17.02;;
38007;SDS011;75335;50.812;12.376;2024-01-15T04:38:18;32.65;;;17.75;;
38007;SDS011;75335;50.812;12.376;2024-01-15T04:40:52;31.65;;;15.18;;
38007;SDS011;75335;50.812;12.376;2024-01-15T04:43:20;38.72;;;15.75;;
38007;SDS011;75335;50.812;12.376;2024-01-15T04:45:48;35.25;;;14.98;;
38007;SDS011;75335;50.812;12.376;2024-01-15T04:48:16;35.10;;;16.08;;
38007;SDS011;75335;50.812;12.376;2024-01-15T04:50:44;29.17;;;14.48;;
38007;SDS011;75335;50.812;12.376;2024-01-15T04:53:24;26.73;;;12.63;;
38007;SDS011;75335;50.812;12.376;2024-01-15T04:55:53;33.22;;;15.13;;
38007;SDS011;75335;50.812;12.376;2024-01-15T04:58:21;37.17;;;14.38;;
38007;SDS011;75335;50.812;12.376;2024-01-15T05:00:51;29.90;;;14.02;;
38007;SDS011;75335;50.812;12.376;2024-01-15T05:03:19;31.90;;;14.60;;
38007;SDS011;75335;50.812;12.376;2024-01-15T05:05:47;33.90;;;15.40;;
38007;SDS011;75335;50.812;12.376;2024-01-15T05:08:20;28.85;;;12.70;;
38007;SDS011;75335;50.812;12.376;2024-01-15T05:10:48;27.35;;;12.45;;
38007;SDS011;75335;50.812;12.376;2024-01-15T05:13:17;27.13;;;13.20;;
38007;SDS011;75335;50.812;12.376;2024-01-15T05:15:45;27.50;;;13.25;;
38007;SDS011;75335;50.812;12.376;2024-01-15T05:18:16;29.73;;;13.32;;
38007;SDS011;75335;50.812;12.376;2024-01-15T05:20:44;25.92;;;13.88;;
38007;SDS011;75335;50.812;12.376;2024-01-15T05:23:13;23.27;;;12.00;;
38007;SDS011;75335;50.812;12.376;2024-01-15T05:25:41;24.35;;;12.52;;
38007;SDS011;75335;50.812;12.376;2024-01-15T05:28:08;30.02;;;12.57;;
38007;SDS011;75335;50.812;12.376;2024-01-15T05:30:38;30.73;;;14.90;;
38007;SDS011;75335;50.812;12.376;2024-01-15T05:33:06;33.22;;;16.10;;
38007;SDS011;75335;50.812;12.376;2024-01-15T05:35:40;30.25;;;15.18;;
38007;SDS011;75335;50.812;12.376;2024-01-15T05:38:08;28.00;;;14.07;;
38007;SDS011;75335;50.812;12.376;2024-01-15T05:40:36;35.85;;;14.70;;
38007;SDS011;75335;50.812;12.376;2024-01-15T05:43:04;37.83;;;16.58;;
38007;SDS011;75335;50.812;12.376;2024-01-15T05:45:33;32.72;;;16.33;;
38007;SDS011;75335;50.812;12.376;2024-01-15T05:48:04;32.33;;;16.35;;
38007;SDS011;75335;50.812;12.376;2024-01-15T05:50:32;33.88;;;16.30;;
38007;SDS011;75335;50.812;12.376;2024-01-15T05:53:00;36.13;;;16.30;;
38007;SDS011;75335;50.812;12.376;2024-01-15T05:55:28;31.58;;;15.93;;
38007;SDS011;75335;50.812;12.376;2024-01-15T05:57:55;32.30;;;15.50;;
38007;SDS011;75335;50.812;12.376;2024-01-15T06:00:29;34.90;;;17.23;;
38007;SDS011;75335;50.812;12.376;2024-01-15T06:02:58;35.20;;;16.60;;
38007;SDS011;75335;50.812;12.376;2024-01-15T06:05:27;31.77;;;14.98;;
38007;SDS011;75335;50.812;12.376;2024-01-15T06:07:55;38.45;;;18.05;;
38007;SDS011;75335;50.812;12.376;2024-01-15T06:10:23;33.25;;;16.58;;
38007;SDS011;75335;50.812;12.376;2024-01-15T06:12:51;32.67;;;14.70;;
38007;SDS011;75335;50.812;12.376;2024-01-15T06:15:22;33.72;;;15.40;;
38007;SDS011;75335;50.812;12.376;2024-01-15T06:20:17;27.42;;;13.88;;
38007;SDS011;75335;50.812;12.376;2024-01-15T06:22:47;28.40;;;13.52;;
38007;SDS011;75335;50.812;12.376;2024-01-15T06:25:14;25.15;;;13.35;;
38007;SDS011;75335;50.812;12.376;2024-01-15T06:27:42;29.13;;;14.77;;
38007;SDS011;75335;50.812;12.376;2024-01-15T06:30:11;32.13;;;16.83;;
38007;SDS011;75335;50.812;12.376;2024-01-15T06:32:40;32.85;;;14.20;;
38007;SDS011;75335;50.812;12.376;2024-01-15T06:35:08;34.55;;;14.80;;
38007;SDS011;75335;50.812;12.376;2024-01-15T06:37:37;29.50;;;16.08;;
38007;SDS011;75335;50.812;12.376;2024-01-15T06:40:08;29.85;;;14.95;;
38007;SDS011;75335;50.812;12.376;2024-01-15T06:42:42;31.40;;;14.98;;
38007;SDS011;75335;50.812;12.376;2024-01-15T06:45:10;26.58;;;15.00;;
38007;SDS011;75335;50.812;12.376;2024-01-15T06:47:37;28.95;;;14.75;;
38007;SDS011;75335;50.812;12.376;2024-01-15T06:50:06;33.70;;;15.82;;
38007;SDS011;75335;50.812;12.376;2024-01-15T06:52:34;28.17;;;14.02;;
38007;SDS011;75335;50.812;12.376;2024-01-15T06:55:12;28.83;;;13.35;;
38007;SDS011;75335;50.812;12.376;2024-01-15T06:57:40;33.58;;;15.60;;
38007;SDS011;75335;50.812;12.376;2024-01-15T07:00:08;26.75;;;13.63;;
38007;SDS011;75335;50.812;12.376;2024-01-15T07:02:37;28.00;;;13.90;;
38007;SDS011;75335;50.812;12.376;2024-01-15T07:05:05;28.10;;;14.02;;
38007;SDS011;75335;50.812;12.376;2024-01-15T07:07:34;25.95;;;12.48;;
38007;SDS011;75335;50.812;12.376;2024-01-15T07:10:02;32.25;;;14.25;;
38007;SDS011;75335;50.812;12.376;2024-01-15T07:12:33;28.92;;;13.35;;
38007;SDS011;75335;50.812;12.376;2024-01-15T07:15:01;27.67;;;14.13;;
38007;SDS011;75335;50.812;12.376;2024-01-15T07:17:31;24.75;;;13.07;;
38007;SDS011;75335;50.812;12.376;2024-01-15T07:19:59;23.10;;;13.50;;
38007;SDS011;75335;50.812;12.376;2024-01-15T07:22:29;27.05;;;13.65;;
38007;SDS011;75335;50.812;12.376;2024-01-15T07:24:57;30.02;;;12.85;;
38007;SDS011;75335;50.812;12.376;2024-01-15T07:27:25;24.83;;;11.57;;
38007;SDS011;75335;50.812;12.376;2024-01-15T07:29:54;24.08;;;12.70;;
38007;SDS011;75335;50.812;12.376;2024-01-15T07:32:22;25.88;;;12.13;;
38007;SDS011;75335;50.812;12.376;2024-01-15T07:34:50;27.50;;;11.95;;
38007;SDS011;75335;50.812;12.376;2024-01-15T07:37:31;25.55;;;12.57;;
38007;SDS011;75335;50.812;12.376;2024-01-15T07:39:59;23.25;;;12.68;;
38007;SDS011;75335;50.812;12.376;2024-01-15T07:42:29;26.30;;;12.10;;
38007;SDS011;75335;50.812;12.376;2024-01-15T07:44:59;25.33;;;12.70;;
38007;SDS011;75335;50.812;12.376;2024-01-15T07:47:28;22.25;;;10.65;;
38007;SDS011;75335;50.812;12.376;2024-01-15T07:49:56;27.63;;;12.13;;
38007;SDS011;75335;50.812;12.376;2024-01-15T07:52:24;23.48;;;11.75;;
38007;SDS011;75335;50.812;12.376;2024-01-15T07:54:52;24.27;;;12.25;;
38007;SDS011;75335;50.812;12.376;2024-01-15T07:57:20;26.17;;;12.70;;
38007;SDS011;75335;50.812;12.376;2024-01-15T07:59:48;23.58;;;12.70;;
38007;SDS011;75335;50.812;12.376;2024-01-15T08:02:18;24.15;;;11.88;;
38007;SDS011;75335;50.812;12.376;2024-01-15T08:04:47;23.40;;;12.20;;
38007;SDS011;75335;50.812;12.376;2024-01-15T08:07:15;25.17;;;11.15;;
38007;SDS011;75335;50.812;12.376;2024-01-15T08:09:43;26.58;;;12.70;;
38007;SDS011;75335;50.812;12.376;2024-01-15T08:12:13;23.48;;;11.50;;
38007;SDS011;75335;50.812;12.376;2024-01-15T08:14:41;23.25;;;11.50;;
38007;SDS011;75335;50.812;12.376;2024-01-15T08:17:10;25.25;;;11.65;;
38007;SDS011;75335;50.812;12.376;2024-01-15T08:19:40;23.17;;;11.63;;
38007;SDS011;75335;50.812;12.376;2024-01-15T08:22:07;22.23;;;11.75;;
38007;SDS011;75335;50.812;12.376;2024-01-15T08:24:36;32.72;;;13.93;;
38007;SDS011;75335;50.812;12.376;2024-01-15T08:27:04;22.95;;;10.70;;
38007;SDS011;75335;50.812;12.376;2024-01-15T08:29:32;21.58;;;10.70;;
38007;SDS011;75335;50.812;12.376;2024-01-15T08:32:00;25.58;;;11.57;;
38007;SDS011;75335;50.812;12.376;2024-01-15T08:34:28;21.17;;;11.10;;
38007;SDS011;75335;50.812;12.376;2024-01-15T08:36:58;21.77;;;10.55;;
38007;SDS011;75335;50.812;12.376;2024-01-15T08:39:27;21.02;;;10.77;;
38007;SDS011;75335;50.812;12.376;2024-01-15T08:41:55;26.83;;;11.77;;
38007;SDS011;75335;50.812;12.376;2024-01-15T08:44:23;23.52;;;10.88;;
38007;SDS011;75335;50.812;12.376;2024-01-15T08:46:51;24.38;;;9.38;;
38007;SDS011;75335;50.812;12.376;2024-01-15T08:49:19;22.67;;;10.90;;
38007;SDS011;75335;50.812;12.376;2024-01-15T08:51:47;23.52;;;10.00;;
38007;SDS011;75335;50.812;12.376;2024-01-15T08:54:17;25.08;;;10.05;;
38007;SDS011;75335;50.812;12.376;2024-01-15T08:56:44;23.00;;;11.00;;
38007;SDS011;75335;50.812;12.376;2024-01-15T08:59:15;24.20;;;11.13;;
38007;SDS011;75335;50.812;12.376;2024-01-15T09:01:49;18.88;;;10.32;;
38007;SDS011;75335;50.812;12.376;2024-01-15T09:04:17;21.92;;;11.05;;
38007;SDS011;75335;50.812;12.376;2024-01-15T09:07:00;23.85;;;10.45;;
38007;SDS011;75335;50.812;12.376;2024-01-15T09:09:30;21.52;;;11.00;;
38007;SDS011;75335;50.812;12.376;2024-01-15T09:11:58;22.98;;;10.95;;
38007;SDS011;75335;50.812;12.376;2024-01-15T09:14:26;19.35;;;9.80;;
38007;SDS011;75335;50.812;12.376;2024-01-15T09:16:54;21.48;;;10.45;;
38007;SDS011;75335;50.812;12.376;2024-01-15T09:19:23;20.40;;;10.45;;
38007;SDS011;75335;50.812;12.376;2024-01-15T09:21:50;21.88;;;10.88;;
38007;SDS011;75335;50.812;12.376;2024-01-15T09:24:19;25.70;;;10.93;;
38007;SDS011;75335;50.812;12.376;2024-01-15T09:26:50;24.17;;;10.90;;
38007;SDS011;75335;50.812;12.376;2024-01-15T09:29:18;26.20;;;11.75;;
38007;SDS011;75335;50.812;12.376;2024-01-15T09:31:46;22.65;;;10.80;;
38007;SDS011;75335;50.812;12.376;2024-01-15T09:34:15;20.75;;;10.00;;
38007;SDS011;75335;50.812;12.376;2024-01-15T09:36:44;22.80;;;12.10;;
38007;SDS011;75335;50.812;12.376;2024-01-15T09:39:15;22.83;;;12.50;;
38007;SDS011;75335;50.812;12.376;2024-01-15T09:44:14;22.88;;;10.25;;
38007;SDS011;75335;50.812;12.376;2024-01-15T09:46:44;26.85;;;12.52;;
38007;SDS011;75335;50.812;12.376;2024-01-15T09:49:15;24.30;;;9.85;;
38007;SDS011;75335;50.812;12.376;2024-01-15T09:51:44;20.25;;;9.82;;
38007;SDS011;75335;50.812;12.376;2024-01-15T09:54:16;23.30;;;9.98;;
38007;SDS011;75335;50.812;12.376;2024-01-15T09:56:45;17.58;;;8.52;;
38007;SDS011;75335;50.812;12.376;2024-01-15T09:59:16;17.50;;;8.23;;
38007;SDS011;75335;50.812;12.376;2024-01-15T10:01:45;18.77;;;10.00;;
38007;SDS011;75335;50.812;12.376;2024-01-15T10:04:15;24.30;;;9.68;;
38007;SDS011;75335;50.812;12.376;2024-01-15T10:06:48;20.50;;;9.93;;
38007;SDS011;75335;50.812;12.376;2024-01-15T10:09:19;20.17;;;9.60;;
38007;SDS011;75335;50.812;12.376;2024-01-15T10:11:47;19.88;;;10.25;;
38007;SDS011;75335;50.812;12.376;2024-01-15T10:14:17;16.70;;;8.80;;
38007;SDS011;75335;50.812;12.376;2024-01-15T10:16:45;24.15;;;10.27;;
38007;SDS011;75335;50.812;12.376;2024-01-15T10:19:12;18.02;;;9.65;;
38007;SDS011;75335;50.812;12.376;2024-01-15T10:21:41;16.95;;;9.13;;
38007;SDS011;75335;50.812;12.376;2024-01-15T10:24:09;16.65;;;8.20;;
38007;SDS011;75335;50.812;12.376;2024-01-15T10:26:37;19.30;;;9.52;;
38007;SDS011;75335;50.812;12.376;2024-01-15T10:29:05;19.95;;;9.43;;
38007;SDS011;75335;50.812;12.376;2024-01-15T10:31:34;16.38;;;7.93;;
38007;SDS011;75335;50.812;12.376;2024-01-15T10:34:14;18.33;;;8.75;;
38007;SDS011;75335;50.812;12.376;2024-01-15T10:36:45;21.10;;;8.80;;
38007;SDS011;75335;50.812;12.376;2024-01-15T10:39:17;21.75;;;9.23;;
38007;SDS011;75335;50.812;12.376;2024-01-15T10:41:46;18.50;;;8.93;;
38007;SDS011;75335;50.812;12.376;2024-01-15T10:44:18;18.35;;;9.18;;
38007;SDS011;75335;50.812;12.376;2024-01-15T10:46:48;20.20;;;8.10;;
38007;SDS011;75335;50.812;12.376;2024-01-15T10:49:18;17.08;;;8.93;;
38007;SDS011;75335;50.812;12.376;2024-01-15T10:51:46;14.70;;;8.13;;
38007;SDS011;75335;50.812;12.376;2024-01-15T10:54:17;16.63;;;8.15;;
38007;SDS011;75335;50.812;12.376;2024-01-15T10:56:48;20.98;;;8.77;;
38007;SDS011;75335;50.812;12.376;2024-01-15T10:59:18;16.48;;;8.80;;
38007;SDS011;75335;50.812;12.376;2024-01-15T11:01:50;15.20;;;7.80;;
38007;SDS011;75335;50.812;12.376;2024-01-15T11:06:49;18.55;;;8.60;;
38007;SDS011;75335;50.812;12.376;2024-01-15T11:09:20;15.15;;;7.70;;
38007;SDS011;75335;50.812;12.376;2024-01-15T11:11:48;16.70;;;9.57;;
38007;SDS011;75335;50.812;12.376;2024-01-15T11:14:34;14.70;;;7.43;;
38007;SDS011;75335;50.812;12.376;2024-01-15T11:17:07;15.93;;;7.53;;
38007;SDS011;75335;50.812;12.376;2024-01-15T11:19:36;14.00;;;6.97;;
38007;SDS011;75335;50.812;12.376;2024-01-15T11:22:07;17.03;;;8.47;;
38007;SDS011;75335;50.812;12.376;2024-01-15T11:24:37;14.75;;;8.02;;
38007;SDS011;75335;50.812;12.376;2024-01-15T11:27:07;13.27;;;7.65;;
38007;SDS011;75335;50.812;12.376;2024-01-15T11:29:36;14.48;;;7.20;;
38007;SDS011;75335;50.812;12.376;2024-01-15T11:32:07;16.42;;;7.80;;
38007;SDS011;75335;50.812;12.376;2024-01-15T11:37:28;16.55;;;7.38;;
38007;SDS011;75335;50.812;12.376;2024-01-15T11:40:13;15.75;;;7.63;;
38007;SDS011;75335;50.812;12.376;2024-01-15T11:42:46;14.13;;;7.65;;
38007;SDS011;75335;50.812;12.376;2024-01-15T11:45:18;14.30;;;7.72;;
38007;SDS011;75335;50.812;12.376;2024-01-15T11:50:49;15.43;;;7.72;;
38007;SDS011;75335;50.812;12.376;2024-01-15T11:53:21;16.02;;;7.60;;
38007;SDS011;75335;50.812;12.376;2024-01-15T11:56:03;16.73;;;8.70;;
38007;SDS011;75335;50.812;12.376;2024-01-15T11:58:41;17.05;;;8.38;;
38007;SDS011;75335;50.812;12.376;2024-01-15T12:01:10;16.85;;;7.75;;
38007;SDS011;75335;50.812;12.376;2024-01-15T12:03:40;18.63;;;7.60;;
38007;SDS011;75335;50.812;12.376;2024-01-15T12:06:08;16.15;;;7.85;;
38007;SDS011;75335;50.812;12.376;2024-01-15T12:08:37;19.60;;;7.35;;
38007;SDS011;75335;50.812;12.376;2024-01-15T12:11:06;14.75;;;6.00;;
38007;SDS011;75335;50.812;12.376;2024-01-15T12:16:28;15.63;;;6.20;;
38007;SDS011;75335;50.812;12.376;2024-01-15T12:18:57;9.93;;;5.47;;
38007;SDS011;75335;50.812;12.376;2024-01-15T12:21:26;12.02;;;5.88;;
38007;SDS011;75335;50.812;12.376;2024-01-15T12:23:55;14.57;;;5.55;;
38007;SDS011;75335;50.812;12.376;2024-01-15T12:26:24;13.60;;;6.03;;
38007;SDS011;75335;50.812;12.376;2024-01-15T12:29:00;12.60;;;7.13;;
38007;SDS011;75335;50.812;12.376;2024-01-15T12:31:29;13.50;;;5.78;;
38007;SDS011;75335;50.812;12.376;2024-01-15T12:33:59;13.45;;;5.78;;
38007;SDS011;75335;50.812;12.376;2024-01-15T12:38:59;10.27;;;5.40;;
38007;SDS011;75335;50.812;12.376;2024-01-15T12:41:28;11.77;;;6.10;;
38007;SDS011;75335;50.812;12.376;2024-01-15T12:43:57;14.73;;;6.20;;
38007;SDS011;75335;50.812;12.376;2024-01-15T12:46:25;21.95;;;6.00;;
38007;SDS011;75335;50.812;12.376;2024-01-15T12:48:53;19.80;;;6.03;;
38007;SDS011;75335;50.812;12.376;2024-01-15T12:51:26;11.80;;;6.00;;
38007;SDS011;75335;50.812;12.376;2024-01-15T12:53:54;11.48;;;5.80;;
38007;SDS011;75335;50.812;12.376;2024-01-15T12:56:22;12.90;;;5.97;;
38007;SDS011;75335;50.812;12.376;2024-01-15T12:58:50;12.90;;;5.32;;
38007;SDS011;75335;50.812;12.376;2024-01-15T13:01:18;12.75;;;6.28;;
38007;SDS011;75335;50.812;12.376;2024-01-15T13:03:47;12.23;;;6.22;;
38007;SDS011;75335;50.812;12.376;2024-01-15T13:06:14;12.43;;;5.95;;
38007;SDS011;75335;50.812;12.376;2024-01-15T13:08:45;12.68;;;5.63;;
38007;SDS011;75335;50.812;12.376;2024-01-15T13:11:13;11.05;;;5.75;;
38007;SDS011;75335;50.812;12.376;2024-01-15T13:13:43;13.45;;;6.65;;
38007;SDS011;75335;50.812;12.376;2024-01-15T13:16:11;16.40;;;6.65;;
38007;SDS011;75335;50.812;12.376;2024-01-15T13:18:39;13.63;;;5.70;;
38007;SDS011;75335;50.812;12.376;2024-01-15T13:21:14;9.93;;;5.88;;
38007;SDS011;75335;50.812;12.376;2024-01-15T13:23:42;26.10;;;7.93;;
38007;SDS011;75335;50.812;12.376;2024-01-15T13:26:11;12.45;;;6.35;;
38007;SDS011;75335;50.812;12.376;2024-01-15T13:28:39;12.77;;;6.38;;
38007;SDS011;75335;50.812;12.376;2024-01-15T13:31:07;13.88;;;7.95;;
38007;SDS011;75335;50.812;12.376;2024-01-15T13:33:35;12.80;;;5.70;;
38007;SDS011;75335;50.812;12.376;2024-01-15T13:36:04;12.23;;;5.82;;
38007;SDS011;75335;50.812;12.376;2024-01-15T13:38:35;17.80;;;5.78;;
38007;SDS011;75335;50.812;12.376;2024-01-15T13:41:05;13.45;;;6.95;;
38007;SDS011;75335;50.812;12.376;2024-01-15T13:43:33;18.35;;;8.38;;
38007;SDS011;75335;50.812;12.376;2024-01-15T13:46:01;12.65;;;6.32;;
38007;SDS011;75335;50.812;12.376;2024-01-15T13:48:30;14.98;;;6.20;;
38007;SDS011;75335;50.812;12.376;2024-01-15T13:50:58;14.27;;;6.82;;
38007;SDS011;75335;50.812;12.376;2024-01-15T13:53:26;15.35;;;6.72;;
38007;SDS011;75335;50.812;12.376;2024-01-15T13:55:55;15.55;;;7.57;;
38007;SDS011;75335;50.812;12.376;2024-01-15T13:58:26;15.05;;;6.93;;
38007;SDS011;75335;50.812;12.376;2024-01-15T14:00:54;15.13;;;6.65;;
38007;SDS011;75335;50.812;12.376;2024-01-15T14:03:21;14.15;;;7.65;;
38007;SDS011;75335;50.812;12.376;2024-01-15T14:05:50;19.45;;;8.25;;
38007;SDS011;75335;50.812;12.376;2024-01-15T14:08:21;14.02;;;7.30;;
38007;SDS011;75335;50.812;12.376;2024-01-15T14:10:49;16.57;;;7.47;;
38007;SDS011;75335;50.812;12.376;2024-01-15T14:13:17;14.00;;;6.97;;
38007;SDS011;75335;50.812;12.376;2024-01-15T14:15:47;15.05;;;6.75;;
38007;SDS011;75335;50.812;12.376;2024-01-15T14:18:15;17.33;;;8.13;;
38007;SDS011;75335;50.812;12.376;2024-01-15T14:20:44;17.73;;;7.43;;
38007;SDS011;75335;50.812;12.376;2024-01-15T14:23:12;14.00;;;7.05;;
38007;SDS011;75335;50.812;12.376;2024-01-15T14:25:40;14.57;;;7.32;;
38007;SDS011;75335;50.812;12.376;2024-01-15T14:28:08;14.80;;;8.68;;
38007;SDS011;75335;50.812;12.376;2024-01-15T14:30:36;15.52;;;6.93;;
38007;SDS011;75335;50.812;12.376;2024-01-15T14:33:06;17.30;;;8.63;;
38007;SDS011;75335;50.812;12.376;2024-01-15T14:35:34;18.83;;;9.52;;
38007;SDS011;75335;50.812;12.376;2024-01-15T14:38:02;17.15;;;8.13;;
38007;SDS011;75335;50.812;12.376;2024-01-15T14:40:30;18.65;;;9.18;;
38007;SDS011;75335;50.812;12.376;2024-01-15T14:42:58;20.17;;;8.38;;